Latest Weather Observations for Coonamble

IDN60801

Issued at 8:05 am EDT Saturday 7 March 2015 (issued every 30 minutes, with the page automatically refreshed every 10 minutes)

About weather observations | Map of weather stations | Latest weather observations for NSW | Other Formats
Station Details ID: 051161 Name: COONAMBLE AIRPORT AWS Lat: -30.98 Lon: 148.38 Height: 181.3 m
Data from the previous 72 hours. | See also: Recent months at Coonamble
Date/Time
EDT
Temp
°C
App
Temp
°C
Dew
Point
Rel
Hum
%
Delta-T
°C
Wind Press
QNH
hPa
Press
MSL
hPa
Rain
since 9 am
mm
Dir
 
Spd
km/h
Gust
km/h
Spd
kts
Gust
kts
07/08:00am 18.1 14.2 5.3 43 6.3 S 15 19 8 10 1011.9 1011.0 0.0
07/07:30am 17.1 13.2 5.4 46 5.7 S 15 20 8 11 1011.7 1010.8 0.0
07/07:00am 15.5 11.8 4.5 48 5.2 S 13 15 7 8 1011.3 1010.5 0.0
07/06:30am 16.5 12.4 4.5 45 5.7 S 15 20 8 11 1011.0 1010.2 0.0
07/06:00am 16.5 12.0 4.2 44 5.8 S 17 19 9 10 1010.7 1009.9 0.0
07/05:30am 16.1 12.6 3.5 43 5.8 SSW 11 13 6 7 1010.8 1010.0 0.0
07/05:00am 16.7 13.5 3.0 40 6.3 S 9 13 5 7 1010.9 1010.1 0.0
07/04:30am 17.4 13.4 3.0 38 6.7 SSW 13 17 7 9 1010.7 1009.9 0.0
07/04:00am 17.8 13.0 2.5 36 7.1 SSW 17 20 9 11 1010.6 1009.8 0.0
07/03:30am 17.4 13.9 1.4 34 7.2 SSW 9 13 5 7 1010.6 1009.8 0.0
07/03:00am 18.4 13.4 1.4 32 7.7 SSW 17 24 9 13 1010.3 1009.5 0.0
07/02:30am 18.6 13.6 1.2 31 7.9 S 17 20 9 11 1010.2 1009.4 0.0
07/02:00am 18.4 13.6 0.5 30 8.0 SSW 15 19 8 10 1010.7 1009.9 0.0
07/01:30am 19.0 13.9 0.6 29 8.2 SSW 17 19 9 10 1010.8 1010.0 0.0
07/01:00am 19.3 14.5 -0.1 27 8.6 SSW 15 20 8 11 1010.8 1010.0 0.0
07/12:30am 18.9 14.3 -1.0 26 8.6 SSW 13 15 7 8 1010.9 1010.1 0.0
07/12:00am 20.0 15.4 -1.2 24 9.2 SSW 13 17 7 9 1010.9 1010.1 0.0
 
Date/Time
EDT
Temp
°C
App
Temp
°C
Dew
Point
Rel
Hum
%
Delta-T
°C
Wind Press
QNH
hPa
Press
MSL
hPa
Rain
since 9 am
mm
Dir
 
Spd
km/h
Gust
km/h
Spd
kts
Gust
kts
06/11:30pm 21.1 16.1 -1.4 22 9.8 S 15 20 8 11 1010.8 1010.0 0.0
06/11:00pm 21.3 15.8 -1.9 21 10.1 SSW 17 20 9 11 1010.7 1009.9 0.0
06/10:30pm 20.6 15.4 -2.5 21 9.8 SSW 15 17 8 9 1010.7 1009.9 0.0
06/10:00pm 20.7 15.5 -3.0 20 10.0 SSW 15 17 8 9 1010.6 1009.8 0.0
06/09:30pm 20.9 16.0 -3.6 19 10.2 SSW 13 15 7 8 1010.4 1009.6 0.0
06/09:00pm 21.3 17.0 -4.7 17 10.7 SSW 9 11 5 6 1010.0 1009.2 0.0
06/08:30pm 21.8 16.7 -5.1 16 11.0 SW 13 15 7 8 1009.5 1008.6 0.0
06/08:00pm 24.2 18.6 -5.9 13 12.4 SSW 15 19 8 10 1009.1 1008.2 0.0
06/07:30pm 26.0 19.4 -6.7 11 13.5 SSW 20 30 11 16 1008.9 1008.0 0.0
06/07:00pm 27.0 19.6 -7.2 10 14.2 SSW 24 32 13 17 1008.5 1007.6 0.0
06/06:30pm 27.7 19.9 -8.0 9 14.7 SSW 26 35 14 19 1008.3 1007.4 0.0
06/06:00pm 28.5 21.2 -6.0 10 14.8 SW 24 35 13 19 1008.3 1007.4 0.0
06/05:30pm 28.5 21.1 -7.4 9 15.0 SSW 24 37 13 20 1008.2 1007.3 0.0
06/05:00pm 28.6 20.8 -7.3 9 15.1 SW 26 37 14 20 1008.1 1007.2 0.0
06/04:30pm 28.9 20.8 -7.1 9 15.2 SSW 28 37 15 20 1008.4 1007.5 0.0
06/04:00pm 28.7 21.3 -7.3 9 15.1 SW 24 33 13 18 1008.7 1007.8 0.0
06/03:30pm 28.4 20.9 -9.0 8 15.2 SW 24 35 13 19 1009.3 1008.4 0.0
06/03:00pm 28.0 19.7 -9.3 8 15.0 SW 28 35 15 19 1009.7 1008.8 0.0
06/02:30pm 27.6 20.0 -9.6 8 14.8 SSW 24 33 13 18 1010.2 1009.4 0.0
06/02:00pm 27.4 19.4 -9.7 8 14.7 SW 26 35 14 19 1010.7 1009.9 0.0
06/01:30pm 26.8 18.5 -8.7 9 14.3 SW 28 39 15 21 1011.1 1010.3 0.0
06/01:00pm 25.6 17.6 -9.6 9 13.8 SW 26 35 14 19 1011.7 1010.8 0.0
06/12:30pm 25.7 17.5 -8.2 10 13.6 SSW 28 37 15 20 1012.2 1011.3 0.0
06/12:00pm 24.7 16.5 -7.7 11 13.0 SSW 28 37 15 20 1012.6 1011.7 0.0
06/11:30am 23.6 15.6 -5.4 14 12.0 SSW 28 41 15 22 1013.0 1012.1 0.0
06/11:00am 23.6 16.5 -4.5 15 11.8 S 24 37 13 20 1013.3 1012.4 0.0
06/10:30am 21.8 15.7 -4.3 17 10.9 SSW 19 28 10 15 1013.5 1012.6 0.0
06/10:00am 21.1 14.8 -4.1 18 10.5 S 20 30 11 16 1013.6 1012.7 0.0
06/09:30am 19.2 14.3 -3.6 21 9.4 S 13 17 7 9 1013.6 1012.7 0.0
06/09:00am 17.9 13.0 -3.5 23 8.7 SSE 13 19 7 10 1013.5 1012.6 0.0
06/08:30am 16.3 11.0 -3.2 26 7.9 S 15 19 8 10 1013.3 1012.4 0.0
06/08:00am 14.6 9.3 -3.2 29 7.1 SSW 15 19 8 10 1013.2 1012.3 0.0
06/07:30am 12.9 8.4 -3.4 32 6.3 SSW 11 13 6 7 1012.9 1012.0 0.0
06/07:00am 12.7 7.4 -3.5 32 6.2 S 15 19 8 10 1012.5 1011.6 0.0
06/06:30am 12.8 7.5 -3.9 31 6.4 S 15 19 8 10 1012.2 1011.3 0.0
06/06:00am 13.4 8.1 -3.8 30 6.6 S 15 19 8 10 1011.9 1011.0 0.0
06/05:30am 14.3 8.2 -3.9 28 7.1 S 19 24 10 13 1011.7 1010.8 0.0
06/05:00am 14.8 8.5 -4.0 27 7.3 S 20 30 11 16 1011.5 1010.7 0.0
06/04:30am 14.7 9.3 -4.1 27 7.3 S 15 20 8 11 1011.7 1010.8 0.0
06/04:00am 15.7 9.6 -4.2 25 7.8 SSW 19 26 10 14 1012.0 1011.1 0.0
06/03:30am 16.4 9.3 -4.2 24 8.1 SSW 24 32 13 17 1012.1 1011.2 0.0
06/03:00am 16.7 9.6 -4.5 23 8.4 S 24 32 13 17 1012.3 1011.4 0.0
06/02:30am 17.3 10.2 -4.6 22 8.7 S 24 32 13 17 1012.6 1011.7 0.0
06/02:00am 17.8 10.2 -5.4 20 9.1 S 26 33 14 18 1012.8 1011.9 0.0
06/01:30am 18.2 10.6 -5.8 19 9.3 SSW 26 37 14 20 1013.0 1012.1 0.0
06/01:00am 18.7 11.8 -6.1 18 9.6 SSW 22 32 12 17 1013.1 1012.2 0.0
06/12:30am 19.1 12.2 -6.5 17 9.9 SSW 22 30 12 16 1013.2 1012.3 0.0
06/12:00am 19.5 12.5 -7.0 16 10.2 SSW 22 30 12 16 1013.2 1012.3 0.0
 
Date/Time
EDT
Temp
°C
App
Temp
°C
Dew
Point
Rel
Hum
%
Delta-T
°C
Wind Press
QNH
hPa
Press
MSL
hPa
Rain
since 9 am
mm
Dir
 
Spd
km/h
Gust
km/h
Spd
kts
Gust
kts
05/11:30pm 19.9 12.9 -7.5 15 10.5 SSW 22 30 12 16 1013.1 1012.2 0.0
05/11:00pm 20.2 13.0 -9.1 13 10.9 SSW 22 30 12 16 1013.2 1012.3 0.0
05/10:30pm 20.7 13.8 -10.8 11 11.4 SSW 20 28 11 15 1013.1 1012.2 0.0
05/10:00pm 21.0 14.4 -9.4 12 11.3 SSW 19 24 10 13 1012.9 1012.0 0.0
05/09:30pm 22.2 14.4 -7.5 13 11.7 SSW 26 35 14 19 1012.4 1011.5 0.0
05/09:00pm 22.8 16.0 -2.0 19 10.9 SSW 24 35 13 19 1012.0 1011.1 0.0
05/08:30pm 23.5 16.4 -1.4 19 11.1 SSW 26 35 14 19 1011.5 1010.7 0.0
05/08:00pm 24.5 17.1 -0.6 19 11.5 SSW 28 37 15 20 1011.0 1010.2 0.0
05/07:30pm 25.3 18.8 2.7 23 11.0 SSW 26 35 14 19 1010.6 1009.8 0.0
05/07:00pm 26.3 19.2 1.6 20 11.9 SSW 28 37 15 20 1010.3 1009.5 0.0
05/06:30pm 27.1 19.3 1.5 19 12.4 SSW 32 43 17 23 1010.0 1009.2 0.0
05/06:11pm 27.8 20.8 2.1 19 12.6 SSW 28 46 15 25 1010.0 1009.2 0.0
05/06:00pm 27.8 19.9 1.3 18 12.9 SSW 32 41 17 22 1009.9 1009.1 0.0
05/05:30pm 28.0 20.1 2.2 19 12.7 SSW 33 44 18 24 1009.8 1009.0 0.0
05/05:00pm 28.0 20.1 2.2 19 12.8 SSW 33 54 18 29 1009.8 1009.0 0.0
05/04:52pm 28.7 21.1 2.8 19 13.0 SSW 32 54 17 29 1009.7 1008.8 0.0
05/04:30pm 28.7 20.9 2.8 19 13.0 SSW 33 46 18 25 1009.9 1009.1 0.0
05/04:00pm 29.1 22.4 3.9 20 12.9 SSW 28 43 15 23 1010.0 1009.2 0.0
05/03:30pm 28.4 20.9 3.3 20 12.7 SSW 32 44 17 24 1010.3 1009.5 0.0
05/03:00pm 28.8 21.2 2.9 19 13.0 SSW 32 46 17 25 1010.9 1010.1 0.0
05/02:30pm 29.1 22.6 4.6 21 12.7 SW 28 44 15 24 1011.2 1010.4 0.0
05/02:08pm 28.6 21.6 4.2 21 12.5 SSW 30 48 16 26 1011.4 1010.6 0.0
05/02:00pm 28.1 20.2 4.4 22 12.2 SSW 35 48 19 26 1011.7 1010.8 0.0
05/01:41pm 28.3 21.1 5.2 23 12.0 SSW 32 50 17 27 1011.7 1010.8 0.0
05/01:30pm 27.1 19.3 4.8 24 11.5 SSW 35 48 19 26 1011.7 1010.8 0.0
05/01:10pm 27.7 20.2 4.7 23 11.8 SSW 33 50 18 27 1011.9 1011.0 0.0
05/01:00pm 28.1 20.7 5.0 23 12.0 SW 33 46 18 25 1012.1 1011.2 0.0
05/12:35pm 27.3 20.1 5.0 24 11.5 SSW 32 50 17 27 1012.2 1011.3 0.0
05/12:30pm 27.5 19.7 5.1 24 11.6 SSW 35 50 19 27 1012.3 1011.4 0.0
05/12:00pm 26.7 19.4 5.6 26 11.0 SW 33 52 18 28 1012.6 1011.7 0.0
05/11:30am 26.0 17.8 4.5 25 10.9 SSW 37 48 20 26 1013.0 1012.1 0.0
05/11:00am 26.3 18.7 4.1 24 11.2 SSW 33 44 18 24 1013.0 1012.1 0.0
05/10:37am 25.6 17.5 3.5 24 11.0 SSW 35 54 19 29 1013.1 1012.2 0.0
05/10:30am 25.8 17.4 3.7 24 11.0 SSW 37 48 20 26 1013.0 1012.1 0.0
05/10:00am 24.8 17.1 2.3 23 10.9 SSW 32 41 17 22 1012.8 1011.9 0.0
05/09:30am 24.6 16.6 1.5 22 11.0 SSW 33 46 18 25 1012.6 1011.7 0.0
05/09:00am 24.2 16.0 0.5 21 11.0 SSW 33 43 18 23 1012.5 1011.6 0.0
05/08:30am 23.6 17.2 0.7 22 10.7 SSW 24 35 13 19 1012.1 1011.2 0.0
05/08:00am 22.6 15.6 -0.2 22 10.4 SSW 26 37 14 20 1011.8 1010.9 0.0
05/07:30am 22.4 15.9 0.3 23 10.1 SSW 24 32 13 17 1011.2 1010.4 0.0
05/07:00am 22.5 16.1 0.9 24 10.0 SSW 24 32 13 17 1010.6 1009.8 0.0
05/06:30am 22.9 17.3 1.3 24 10.1 SSW 20 30 11 16 1010.0 1009.2 0.0
05/06:00am 22.8 18.2 1.8 25 9.9 SSW 15 19 8 10 1009.4 1008.5 0.0
05/05:30am 22.8 18.7 2.3 26 9.8 SSW 13 17 7 9 1009.2 1008.3 0.0
05/05:00am 23.3 19.2 2.2 25 10.1 SSW 13 20 7 11 1009.0 1008.1 0.0
05/04:30am 23.4 19.3 2.3 25 10.1 SSW 13 17 7 9 1009.0 1008.1 0.0
05/04:00am 24.2 19.4 2.4 24 10.5 SSW 17 20 9 11 1009.1 1008.2 0.0
05/03:30am 24.7 19.5 2.2 23 10.9 SSW 19 22 10 12 1009.2 1008.3 0.0
05/03:00am 25.3 20.5 2.7 23 11.1 SSW 17 24 9 13 1009.3 1008.4 0.0
05/02:30am 25.9 20.7 2.6 22 11.4 SSW 19 24 10 13 1009.3 1008.4 0.0
05/02:00am 26.5 21.2 3.1 22 11.6 SSW 20 30 11 16 1009.6 1008.7 0.0
05/01:30am 26.9 21.8 4.0 23 11.6 SSW 20 28 11 15 1009.6 1008.7 0.0
05/01:00am 27.1 22.2 4.2 23 11.7 SSW 19 26 10 14 1009.8 1009.0 0.0
05/12:30am 27.2 23.0 5.5 25 11.3 SSW 17 24 9 13 1009.6 1008.7 0.0
05/12:00am 27.2 23.7 5.5 25 11.3 SSW 13 17 7 9 1009.5 1008.6 0.0
 
Date/Time
EDT
Temp
°C
App
Temp
°C
Dew
Point
Rel
Hum
%
Delta-T
°C
Wind Press
QNH
hPa
Press
MSL
hPa
Rain
since 9 am
mm
Dir
 
Spd
km/h
Gust
km/h
Spd
kts
Gust
kts
04/11:30pm 28.1 24.1 5.0 23 12.0 SSW 15 17 8 9 1009.5 1008.6 0.0
04/11:00pm 28.3 24.2 4.6 22 12.2 SSW 15 17 8 9 1009.5 1008.6 0.0
04/10:30pm 28.6 25.0 4.8 22 12.3 SSW 13 17 7 9 1009.6 1008.7 0.0
04/10:00pm 28.8 25.1 4.3 21 12.6 SSW 13 15 7 8 1009.6 1008.7 0.0
04/09:30pm 28.8 25.5 4.3 21 12.6 SSW 11 13 6 7 1009.5 1008.6 0.0
04/09:00pm 29.0 25.4 3.1 19 13.1 SSW 11 13 6 7 1009.3 1008.4 0.0
04/08:30pm 31.0 26.7 3.1 17 14.3 SW 15 17 8 9 1009.0 1008.1 0.0
04/08:00pm 32.3 27.5 2.4 15 15.2 SW 17 20 9 11 1008.8 1007.9 0.0
04/07:30pm 33.2 28.2 1.1 13 16.1 SW 17 22 9 12 1008.6 1007.7 0.0
04/07:00pm 34.7 29.1 -0.1 11 17.3 SSW 19 24 10 13 1008.4 1007.5 0.0
04/06:30pm 35.7 29.8 -0.6 10 18.0 SW 20 30 11 16 1008.4 1007.5 0.0
04/06:00pm 36.2 30.4 -0.2 10 18.2 SW 20 33 11 18 1008.3 1007.4 0.0
04/05:30pm 36.7 31.1 0.1 10 18.4 WSW 19 32 10 17 1008.3 1007.4 0.0
04/05:00pm 36.6 31.0 0.1 10 18.4 SW 19 28 10 15 1008.4 1007.5 0.0
04/04:30pm 37.0 32.1 1.7 11 18.3 SW 17 26 9 14 1008.5 1007.6 0.0
04/04:00pm 36.6 31.0 1.4 11 18.1 SW 20 32 11 17 1008.9 1008.0 0.0
04/03:30pm 37.2 31.5 3.1 12 18.1 SW 22 32 12 17 1009.2 1008.3 0.0
04/03:00pm 36.5 31.3 3.7 13 17.5 SW 20 35 11 19 1009.5 1008.6 0.0
04/02:30pm 36.3 30.7 3.5 13 17.4 SW 22 50 12 27 1009.8 1009.0 0.0
04/02:00pm 36.1 31.1 4.4 14 17.0 WSW 20 35 11 19 1010.1 1009.3 0.0
04/01:30pm 35.6 30.9 5.0 15 16.5 WSW 19 30 10 16 1010.5 1009.7 0.0
04/01:00pm 35.7 31.8 6.9 17 16.1 SW 17 26 9 14 1010.8 1010.0 0.0
04/12:30pm 35.2 31.2 6.5 17 15.9 WSW 17 30 9 16 1011.2 1010.4 0.0
04/12:00pm 34.6 32.5 11.1 24 13.9 S 13 20 7 11 1011.9 1011.0 0.0
04/11:30am 33.1 31.9 12.7 29 12.3 SW 11 17 6 9 1012.3 1011.4 0.0
04/11:00am 32.0 31.0 12.3 30 11.7 SSW 9 15 5 8 1012.6 1011.7 0.0
04/10:30am 31.6 30.1 11.9 30 11.6 NW 11 20 6 11 1012.7 1011.8 0.0
04/10:00am 30.8 28.8 12.7 33 10.8 NNW 15 20 8 11 1012.6 1011.7 0.0
04/09:30am 29.7 28.2 13.0 35 10.0 N 13 19 7 10 1012.4 1011.5 0.0
04/09:00am 28.6 27.7 12.5 37 9.5 NNW 9 15 5 8 1012.3 1011.4 0.0
04/08:30am 27.6 26.8 12.8 40 8.7 NW 9 13 5 7 1011.9 1011.0 0.0

Other Formats:

Comma delimited format used in spreadsheet applications
http://www.bom.gov.au/fwo/IDN60801/IDN60801.95718.axf

JavaScript Object Notation format (JSON) in row-major order
http://www.bom.gov.au/fwo/IDN60801/IDN60801.95718.json